Terminal Aerodrome Forecast
Issued by NWS Newport/Morehead City, NC

Home | Current Version | Previous Version | Text Only | Print | Product List | Glossary On
Versions: 1 2 3 4 5 6 7 8 9 10 11 12 13 14 15 16
000
FTUS42 KMHX 281734
TAFEWN
TAF
KEWN 281734Z 2818/2918 14007KT P6SM SCT040 BKN060
     FM290100 VRB03KT P6SM SKC
     FM290800 VRB03KT 3SM BR BKN200
     FM291300 09005KT P6SM SCT250=

USA.gov is the U.S. government's official web portal to all federal, state and local government web resources and services.